Time;durP1;ratioP1;P1;durP2;ratioP2;P2;SDS_P1;SDS_P2;PMS_P1;PMS_P2;Temp;Humidity;BMP_temperature;BMP_pressure;BME280_temperature;BME280_humidity;BME280_pressure;Samples;Min_cycle;Max_cycle;Signal;HPM_P1;HPM_P2
2020/12/28 00:00:00;;;;;;;14.15;9.70;;;;;;;4.34;76.69;97878.62;2987802;78;21147;-61
2020/12/28 00:04:03;;;;;;;11.38;6.35;;;;;;;4.35;76.89;97872.85;3003080;78;21159;-61
2020/12/28 00:08:06;;;;;;;9.45;7.35;;;;;;;4.34;76.78;97851.45;2973551;79;21162;-61
2020/12/28 00:12:10;;;;;;;14.23;6.85;;;;;;;4.29;76.88;97835.63;2985605;78;22158;-60
2020/12/28 00:16:15;;;;;;;6.72;6.03;;;;;;;4.37;76.81;97830.95;2946812;78;21148;-59
2020/12/28 00:20:22;;;;;;;10.35;6.85;;;;;;;4.40;76.81;97806.95;2929392;78;21092;-61
2020/12/28 00:24:25;;;;;;;;;;;;;;;4.43;76.75;97801.39;2929335;80;21535;-61
2020/12/28 00:28:28;;;;;;;16.45;8.43;;;;;;;4.39;76.91;97796.56;2922875;78;20195;-61
2020/12/28 00:32:47;;;;;;;12.60;6.78;;;;;;;4.43;77.01;97794.81;2925561;80;21172;-62
2020/12/28 00:36:51;;;;;;;13.22;8.28;;;;;;;4.39;77.37;97784.24;2946596;80;21169;-61
2020/12/28 00:40:54;;;;;;;11.38;6.90;;;;;;;4.42;77.48;97762.04;2955423;78;21100;-61
2020/12/28 00:44:58;;;;;;;9.58;7.12;;;;;;;4.46;77.38;97763.89;2932625;80;21140;-60
2020/12/28 00:49:00;;;;;;;7.95;5.03;;;;;;;4.42;77.49;97750.20;2951301;78;21129;-61
2020/12/28 00:53:03;;;;;;;11.57;6.55;;;;;;;4.37;77.74;97737.50;2970348;80;21097;-62
2020/12/28 00:57:09;;;;;;;9.88;5.45;;;;;;;4.46;77.32;97732.31;2970113;80;21133;-62
2020/12/28 01:01:12;;;;;;;6.55;4.25;;;;;;;4.46;77.16;97735.78;2950847;80;21156;-62
2020/12/28 01:05:17;;;;;;;6.67;3.67;;;;;;;4.42;76.96;97727.34;2933574;80;21160;-62
2020/12/28 01:09:20;;;;;;;4.40;3.08;;;;;;;4.56;76.60;97727.81;2926216;80;21073;-62
2020/12/28 01:13:24;;;;;;;7.05;4.37;;;;;;;4.63;76.19;97709.61;2948981;80;21117;-62
2020/12/28 01:17:27;;;;;;;5.28;3.33;;;;;;;4.58;75.89;97706.11;2933767;80;21125;-61
2020/12/28 01:21:31;;;;;;;4.03;3.62;;;;;;;4.61;76.03;97702.33;2949066;80;21144;-63
2020/12/28 01:25:34;;;;;;;7.15;5.35;;;;;;;4.68;75.95;97716.05;2949054;80;21113;-63
2020/12/28 01:29:37;;;;;;;8.08;5.40;;;;;;;4.70;75.88;97694.34;2948919;80;21133;-61
2020/12/28 01:33:40;;;;;;;5.03;3.85;;;;;;;4.79;75.61;97695.73;2949082;80;21149;-61
2020/12/28 01:37:42;;;;;;;3.87;3.42;;;;;;;4.76;75.83;97699.49;2949130;80;21174;-62
2020/12/28 01:41:45;;;;;;;6.55;3.15;;;;;;;4.76;75.75;97686.83;2949220;80;21121;-61
2020/12/28 01:45:48;;;;;;;4.83;3.90;;;;;;;4.89;75.32;97681.97;2949339;80;21152;-61
2020/12/28 01:49:52;;;;;;;3.15;2.87;;;;;;;4.98;74.95;97687.66;2949085;80;21145;-61
2020/12/28 01:53:55;;;;;;;5.65;2.90;;;;;;;5.02;74.94;97674.16;2949041;80;21097;-63
2020/12/28 01:57:58;;;;;;;3.45;2.00;;;;;;;4.96;75.07;97677.77;2949233;80;21105;-63
2020/12/28 02:02:03;;;;;;;3.72;3.45;;;;;;;4.98;75.32;97662.63;2949485;80;22008;-61
2020/12/28 02:06:06;;;;;;;5.85;3.62;;;;;;;5.09;75.15;97666.80;3017141;78;21147;-62
2020/12/28 02:10:10;;;;;;;4.62;3.92;;;;;;;5.08;75.14;97666.95;2947450;80;21124;-61
2020/12/28 02:14:14;;;;;;;6.53;4.30;;;;;;;5.12;75.00;97665.17;2970950;78;21097;-61
2020/12/28 02:18:20;;;;;;;4.37;2.90;;;;;;;5.10;74.98;97655.76;2972524;79;21106;-61
2020/12/28 02:22:23;;;;;;;6.42;3.33;;;;;;;5.12;75.05;97648.55;2944384;79;21147;-61
2020/12/28 02:26:26;;;;;;;5.45;3.33;;;;;;;5.09;75.26;97640.45;2969604;80;21136;-61
2020/12/28 02:30:29;;;;;;;5.58;4.28;;;;;;;5.13;75.25;97637.03;2982974;78;21585;-61
2020/12/28 02:34:33;;;;;;;5.33;2.90;;;;;;;5.08;75.47;97611.61;2955573;80;21140;-61
2020/12/28 02:38:37;;;;;;;6.45;5.03;;;;;;;5.08;75.77;97607.66;3017391;78;21132;-62
2020/12/28 02:42:40;;;;;;;3.75;3.40;;;;;;;5.03;75.67;97580.97;2970844;80;21142;-62
2020/12/28 02:46:43;;;;;;;7.37;3.75;;;;;;;5.08;75.87;97570.77;2971064;78;21120;-60
2020/12/28 02:50:46;;;;;;;3.98;2.92;;;;;;;5.07;75.68;97569.13;2963718;80;21175;-60
2020/12/28 02:54:48;;;;;;;6.35;5.08;;;;;;;5.05;75.93;97560.08;2963952;80;21135;-61
2020/12/28 02:58:52;;;;;;;7.22;4.08;;;;;;;5.06;76.06;97558.25;2964035;80;21159;-62
2020/12/28 03:02:55;;;;;;;4.08;2.98;;;;;;;5.04;76.08;97553.16;2960772;80;21112;-62
2020/12/28 03:06:57;;;;;;;4.62;4.05;;;;;;;5.05;76.30;97527.62;2936549;80;21153;-62
2020/12/28 03:11:00;;;;;;;5.72;4.50;;;;;;;4.99;76.43;97507.52;2900641;82;21122;-60
2020/12/28 03:15:03;;;;;;;6.75;6.15;;;;;;;5.17;76.04;97527.67;2900728;82;21146;-62
2020/12/28 03:19:06;;;;;;;6.05;4.97;;;;;;;5.19;75.96;97515.16;2900324;81;21150;-60
2020/12/28 03:23:09;;;;;;;6.15;5.20;;;;;;;5.20;76.11;97503.63;2900204;81;21130;-61
2020/12/28 03:27:12;;;;;;;7.42;3.60;;;;;;;5.24;76.03;97503.64;2900665;82;21134;-60
2020/12/28 03:31:16;;;;;;;9.03;5.25;;;;;;;5.29;76.01;97490.80;2900356;82;21134;-61
2020/12/28 03:35:20;;;;;;;6.53;3.72;;;;;;;5.36;75.82;97492.30;2900673;82;21123;-59
2020/12/28 03:39:23;;;;;;;6.80;5.35;;;;;;;5.34;75.72;97478.97;2900328;81;21102;-60
2020/12/28 03:43:26;;;;;;;8.55;4.15;;;;;;;5.39;75.51;97481.42;2900432;82;21146;-60
2020/12/28 03:47:29;;;;;;;7.67;5.67;;;;;;;5.41;75.47;97466.78;2900554;82;21145;-62
2020/12/28 03:51:32;;;;;;;5.20;3.25;;;;;;;5.52;75.13;97485.41;2900352;82;21137;-61
2020/12/28 03:55:35;;;;;;;5.70;3.95;;;;;;;5.58;74.83;97490.87;2918204;80;21125;-60
2020/12/28 03:59:38;;;;;;;6.30;5.05;;;;;;;5.63;74.88;97493.50;2903855;80;21140;-61
2020/12/28 04:03:41;;;;;;;7.03;5.40;;;;;;;5.64;74.81;97487.23;2913275;80;21152;-61
2020/12/28 04:07:44;;;;;;;6.22;4.42;;;;;;;5.66;74.79;97493.17;2910898;80;21181;-63
2020/12/28 04:11:46;;;;;;;8.93;5.05;;;;;;;5.66;74.91;97490.53;2929285;80;21137;-61
2020/12/28 04:15:50;;;;;;;3.95;3.22;;;;;;;5.68;74.90;97505.22;2945246;80;21167;-61
2020/12/28 04:19:52;;;;;;;5.10;4.05;;;;;;;5.69;75.00;97498.95;2951395;80;21145;-61
2020/12/28 04:23:55;;;;;;;4.55;3.58;;;;;;;5.72;75.02;97496.50;2903337;80;21125;-60
2020/12/28 04:27:58;;;;;;;5.22;3.27;;;;;;;5.75;74.93;97484.30;2900650;82;21145;-62
2020/12/28 04:32:01;;;;;;;6.72;4.45;;;;;;;5.70;75.05;97473.42;2900248;82;21616;-60
2020/12/28 04:36:05;;;;;;;4.62;4.30;;;;;;;5.69;75.24;97463.83;2906505;80;21149;-61
2020/12/28 04:40:08;;;;;;;6.40;4.25;;;;;;;5.75;75.19;97466.31;2951331;80;21127;-62
2020/12/28 04:44:11;;;;;;;6.47;3.58;;;;;;;5.74;75.04;97471.26;2951549;80;21120;-60
2020/12/28 04:48:15;;;;;;;7.08;5.40;;;;;;;5.69;75.26;97463.83;2951769;80;21137;-61
2020/12/28 04:52:18;;;;;;;3.80;3.35;;;;;;;5.72;75.09;97463.02;2923232;80;21089;-61
2020/12/28 04:56:23;;;;;;;5.55;4.35;;;;;;;5.70;75.01;97457.08;2951559;80;21136;-61
2020/12/28 05:00:26;;;;;;;11.08;5.05;;;;;;;5.65;75.11;97457.24;2950255;80;21168;-61
2020/12/28 05:04:31;;;;;;;8.60;7.65;;;;;;;5.62;75.07;97456.25;2900867;80;21192;-61
2020/12/28 05:08:33;;;;;;;4.78;4.30;;;;;;;5.72;75.03;97474.89;2929857;80;21105;-60
2020/12/28 05:12:36;;;;;;;3.87;3.55;;;;;;;5.67;75.12;97454.78;2934809;79;21164;-61
2020/12/28 05:16:41;;;;;;;7.17;4.78;;;;;;;5.65;75.14;97441.42;2932649;80;21149;-61
2020/12/28 05:20:47;;;;;;;9.48;5.90;;;;;;;5.65;75.34;97428.23;2935911;79;21165;-62
2020/12/28 05:24:51;;;;;;;9.13;5.60;;;;;;;5.58;75.65;97439.45;2945307;80;21165;-62
2020/12/28 05:28:58;;;;;;;7.78;5.35;;;;;;;5.57;75.52;97435.64;2935853;80;21133;-62
2020/12/28 05:33:04;;;;;;;8.20;5.90;;;;;;;5.65;75.37;97442.73;2930099;80;21161;-63
2020/12/28 05:37:10;;;;;;;5.35;4.03;;;;;;;5.63;75.49;97449.98;2926674;80;21587;-63
2020/12/28 05:41:13;;;;;;;17.45;8.58;;;;;;;5.64;75.66;97438.45;2925439;80;21145;-63
2020/12/28 05:45:17;;;;;;;8.83;5.58;;;;;;;5.70;75.25;97432.54;2928612;80;21153;-62
2020/12/28 05:49:21;;;;;;;6.40;4.75;;;;;;;5.73;75.00;97430.89;2922037;80;21161;-62
2020/12/28 05:53:26;;;;;;;6.22;4.42;;;;;;;5.70;75.00;97441.77;2928985;80;21136;-64
2020/12/28 05:57:30;;;;;;;7.17;5.15;;;;;;;5.74;75.03;97456.27;2924839;80;21146;-61
2020/12/28 06:01:38;;;;;;;14.80;6.92;;;;;;;5.78;75.01;97474.73;2923026;80;21643;-61
2020/12/28 06:05:45;;;;;;;7.75;5.47;;;;;;;5.79;74.91;97484.30;2920770;79;21159;-64
2020/12/28 06:09:56;;;;;;;6.55;3.87;;;;;;;5.80;74.85;97500.45;2908200;81;21558;-62
2020/12/28 06:13:59;;;;;;;4.35;3.72;;;;;;;5.84;74.85;97497.80;2919350;81;21601;-63
2020/12/28 06:18:02;;;;;;;6.50;5.37;;;;;;;5.84;74.81;97495.17;2911158;81;21414;-61
2020/12/28 06:22:23;;;;;;;5.95;3.83;;;;;;;5.76;74.89;97455.61;2910212;81;21145;-62
2020/12/28 06:26:29;;;;;;;4.87;3.65;;;;;;;5.65;75.25;97443.58;2927438;81;21163;-64
2020/12/28 06:30:34;;;;;;;7.58;5.08;;;;;;;5.65;75.32;97457.24;2935937;80;21121;-64
2020/12/28 06:34:40;;;;;;;9.50;4.60;;;;;;;5.62;75.37;97457.57;2928211;80;21181;-63
2020/12/28 06:39:00;;;;;;;8.28;5.12;;;;;;;5.56;75.52;97471.75;2932688;80;21098;-62
2020/12/28 06:43:13;;;;;;;9.23;7.25;;;;;;;5.53;75.70;97483.95;2943699;80;21116;-64
2020/12/28 06:47:25;;;;;;;8.68;6.50;;;;;;;5.57;75.77;97476.03;2943805;80;21161;-60
2020/12/28 06:51:30;;;;;;;8.70;6.42;;;;;;;5.55;75.67;97455.60;2944160;80;21171;-61
2020/12/28 06:55:34;;;;;;;7.95;5.20;;;;;;;5.46;76.01;97463.16;2943944;80;21147;-62
2020/12/28 06:59:40;;;;;;;6.72;6.05;;;;;;;5.48;76.17;97468.27;2949704;80;21711;-61
2020/12/28 07:03:48;;;;;;;6.25;5.42;;;;;;;5.51;76.19;97478.49;2948603;79;21628;-60
2020/12/28 07:07:53;;;;;;;5.33;4.42;;;;;;;5.55;75.97;97487.72;2938088;80;21100;-61
2020/12/28 07:12:09;;;;;;;9.13;7.05;;;;;;;5.58;75.84;97471.57;2922791;80;21176;-62
2020/12/28 07:16:14;;;;;;;17.15;10.35;;;;;;;5.48;76.23;97453.27;2913693;81;21121;-60
2020/12/28 07:20:18;;;;;;;14.75;10.35;;;;;;;5.36;76.57;97417.68;2944799;80;21622;-62
2020/12/28 07:24:22;;;;;;;91.78;46.53;;;;;;;5.34;76.60;97425.73;2900234;82;21121;-63
2020/12/28 07:28:25;;;;;;;174.35;112.88;;;;;;;5.31;76.76;97439.75;2944695;80;21140;-62
2020/12/28 07:32:29;;;;;;;145.68;89.30;;;;;;;5.40;76.82;97454.11;2961069;79;21128;-64
2020/12/28 07:36:34;;;;;;;7.25;5.70;;;;;;;5.50;76.41;97443.41;2922550;80;21754;-61
2020/12/28 07:40:38;;;;;;;38.80;25.25;;;;;;;5.52;76.27;97434.84;2907887;80;21125;-61
2020/12/28 07:44:42;;;;;;;7.67;6.40;;;;;;;5.44;76.38;97400.54;2951594;80;21117;-62
2020/12/28 07:48:47;;;;;;;9.30;5.78;;;;;;;5.33;76.95;97402.20;2939355;80;21152;-63
2020/12/28 07:53:17;;;;;;;7.87;6.78;;;;;;;5.11;77.95;97399.17;2900191;82;21579;-62
2020/12/28 07:57:25;;;;;;;9.10;5.62;;;;;;;5.14;77.79;97396.23;2900021;82;21156;-63
2020/12/28 08:01:37;;;;;;;9.45;6.58;;;;;;;5.16;77.81;97406.12;2900036;82;21137;-62
2020/12/28 08:05:40;;;;;;;7.45;6.60;;;;;;;5.21;77.61;97403.81;2899126;81;21145;-63
2020/12/28 08:09:53;;;;;;;6.50;5.90;;;;;;;5.27;77.34;97412.38;2897964;82;21165;-62
2020/12/28 08:13:58;;;;;;;10.30;6.45;;;;;;;5.29;77.17;97397.23;2898166;82;21139;-62
2020/12/28 08:18:07;;;;;;;6.70;5.12;;;;;;;5.33;76.96;97400.88;2931683;80;21109;-62
2020/12/28 08:22:21;;;;;;;12.07;8.70;;;;;;;5.36;76.80;97409.77;2909714;80;21141;-64
2020/12/28 08:26:28;;;;;;;16.90;12.65;;;;;;;5.36;76.77;97424.27;2931939;80;21116;-62
2020/12/28 08:30:32;;;;;;;13.38;11.20;;;;;;;5.45;76.55;97437.78;2947547;80;21133;-62
2020/12/28 08:34:36;;;;;;;13.30;11.93;;;;;;;5.53;76.20;97430.38;2933822;80;21615;-63
2020/12/28 08:38:39;;;;;;;8.98;7.53;;;;;;;5.41;76.42;97421.48;2945674;80;21594;-62
2020/12/28 08:42:42;;;;;;;10.82;5.90;;;;;;;5.33;76.96;97396.92;2898051;82;21148;-60
2020/12/28 08:46:45;;;;;;;13.38;8.45;;;;;;;5.31;77.05;97394.44;2898581;80;21145;-63
2020/12/28 08:50:48;;;;;;;12.73;10.65;;;;;;;5.30;77.20;97417.83;2949113;80;21137;-64
2020/12/28 08:54:59;;;;;;;12.55;7.42;;;;;;;5.40;76.92;97439.61;2949268;80;21129;-62
2020/12/28 08:59:04;;;;;;;9.50;8.50;;;;;;;5.51;76.58;97429.71;2949149;80;21132;-63
2020/12/28 09:03:09;;;;;;;18.12;11.60;;;;;;;5.50;76.41;97413.09;2923166;80;21169;-64
2020/12/28 09:07:13;;;;;;;35.33;17.82;;;;;;;5.50;76.36;97397.27;2916053;80;21140;-64
2020/12/28 09:11:16;;;;;;;25.37;16.42;;;;;;;5.43;76.60;97405.48;2978089;78;21119;-62
2020/12/28 09:15:19;;;;;;;10.23;8.13;;;;;;;5.45;76.18;97395.59;2939386;80;21073;-62
2020/12/28 09:19:22;;;;;;;9.23;7.95;;;;;;;5.54;75.79;97394.63;3017319;77;21634;-62
2020/12/28 09:23:25;;;;;;;10.82;7.90;;;;;;;5.62;75.53;97392.97;2969464;78;21143;-62
2020/12/28 09:27:28;;;;;;;14.85;10.20;;;;;;;5.69;74.98;97390.82;2961988;80;21133;-62
2020/12/28 09:31:31;;;;;;;41.00;21.97;;;;;;;5.75;74.62;97384.55;2988718;78;21147;-62
2020/12/28 09:35:38;;;;;;;42.15;24.60;;;;;;;5.80;74.60;97389.66;2934302;80;21147;-63
2020/12/28 09:39:40;;;;;;;;;;;;;;;5.84;74.42;97399.39;2976896;78;21144;-63
2020/12/28 09:43:44;;;;;;;26.48;16.70;;;;;;;5.87;73.99;97391.13;2933839;80;20177;-63
2020/12/28 09:47:47;;;;;;;18.80;11.63;;;;;;;5.88;73.98;97401.17;2963844;80;21115;-63
2020/12/28 09:51:54;;;;;;;20.62;10.35;;;;;;;5.82;74.54;97404.81;2975772;78;21164;-62
2020/12/28 09:55:58;;;;;;;18.48;14.45;;;;;;;5.80;74.84;97400.20;2953033;80;21172;-62
2020/12/28 10:00:01;;;;;;;13.15;9.73;;;;;;;5.86;74.53;97388.17;2985415;78;21139;-64
2020/12/28 10:04:05;;;;;;;9.90;8.90;;;;;;;5.93;74.34;97379.09;2986442;78;21492;-62
2020/12/28 10:08:08;;;;;;;14.50;11.35;;;;;;;5.99;74.15;97374.45;2946427;80;21163;-63
2020/12/28 10:12:11;;;;;;;23.55;13.62;;;;;;;6.02;73.88;97370.19;2914005;80;21147;-61
2020/12/28 10:16:13;;;;;;;20.57;12.33;;;;;;;6.05;73.08;97381.72;2946169;80;21120;-64
2020/12/28 10:20:16;;;;;;;15.55;10.90;;;;;;;6.08;73.14;97385.34;2916086;80;21120;-62
2020/12/28 10:24:21;;;;;;;21.73;13.22;;;;;;;6.04;73.37;97380.08;2962015;80;21562;-62
2020/12/28 10:28:24;;;;;;;24.37;14.47;;;;;;;6.06;73.33;97363.58;2939517;78;21137;-62
2020/12/28 10:32:29;;;;;;;45.38;29.72;;;;;;;6.06;73.46;97358.30;2956288;79;21141;-63
2020/12/28 10:36:33;;;;;;;19.42;13.35;;;;;;;6.06;73.73;97362.25;2938725;80;21124;-61
2020/12/28 10:40:35;;;;;;;25.82;15.50;;;;;;;6.05;73.86;97368.53;2936256;80;21137;-61
2020/12/28 10:44:40;;;;;;;15.08;11.55;;;;;;;6.05;73.89;97354.53;2937098;80;21155;-63
2020/12/28 10:48:45;;;;;;;16.85;12.70;;;;;;;6.05;73.88;97336.86;2913844;80;21187;-62
2020/12/28 10:52:48;;;;;;;26.57;16.32;;;;;;;6.13;73.67;97335.53;2950855;80;21879;-63
2020/12/28 10:56:52;;;;;;;18.45;10.15;;;;;;;6.20;73.15;97326.92;2923452;80;21104;-61
2020/12/28 11:00:55;;;;;;;30.30;18.77;;;;;;;6.18;72.96;97313.88;2930271;80;21133;-62
2020/12/28 11:04:59;;;;;;;45.08;27.15;;;;;;;6.21;73.26;97301.69;2927989;80;23307;-63
2020/12/28 11:09:02;;;;;;;19.10;14.50;;;;;;;6.27;72.93;97297.52;2931878;80;21149;-63
2020/12/28 11:13:05;;;;;;;21.77;16.48;;;;;;;6.32;72.66;97283.33;2934120;80;21089;-62
2020/12/28 11:17:08;;;;;;;27.27;20.60;;;;;;;6.45;72.70;97288.52;2921393;79;21167;-64
2020/12/28 11:21:12;;;;;;;16.25;11.83;;;;;;;6.55;72.14;97293.91;2919773;79;21142;-64
2020/12/28 11:25:18;;;;;;;23.98;15.15;;;;;;;6.64;71.64;97299.97;2916200;80;21585;-63
2020/12/28 11:29:21;;;;;;;23.42;18.02;;;;;;;6.73;71.86;97281.45;2935768;79;21172;-63
2020/12/28 11:33:24;;;;;;;18.32;13.75;;;;;;;6.73;71.48;97271.69;2963198;79;21538;-62
2020/12/28 11:37:27;;;;;;;18.85;13.13;;;;;;;6.79;71.68;97274.97;2917975;79;21129;-65
2020/12/28 11:41:32;;;;;;;22.95;15.25;;;;;;;6.86;71.31;97267.13;2941069;79;21116;-63
2020/12/28 11:45:35;;;;;;;18.30;10.78;;;;;;;6.91;71.41;97261.33;2927591;79;21298;-63
2020/12/28 11:49:42;;;;;;;32.88;18.10;;;;;;;6.88;70.00;97255.08;2930962;79;21180;-63
2020/12/28 11:53:46;;;;;;;20.00;11.70;;;;;;;6.85;69.69;97254.92;2926886;79;21113;-62
2020/12/28 11:57:49;;;;;;;15.32;12.60;;;;;;;6.78;69.35;97254.00;2930193;80;22216;-62
2020/12/28 12:01:52;;;;;;;18.40;11.90;;;;;;;6.69;69.47;97247.46;2928643;80;21136;-61
2020/12/28 12:05:59;;;;;;;16.97;11.00;;;;;;;6.62;69.22;97250.98;2916766;79;21435;-63
2020/12/28 12:10:02;;;;;;;16.25;11.73;;;;;;;6.50;69.51;97254.52;2898140;82;21117;-63
2020/12/28 12:14:07;;;;;;;16.35;12.00;;;;;;;6.42;69.81;97249.59;2903908;80;21147;-62
2020/12/28 12:18:12;;;;;;;14.23;9.10;;;;;;;6.38;69.28;97244.34;2912543;81;21144;-63
2020/12/28 12:22:16;;;;;;;38.80;22.62;;;;;;;6.25;69.23;97238.80;2924246;80;21590;-60
2020/12/28 12:26:21;;;;;;;66.42;36.60;;;;;;;6.24;69.64;97245.07;2926559;80;21159;-62
2020/12/28 12:30:24;;;;;;;31.10;20.77;;;;;;;6.19;69.90;97243.45;2972099;79;21140;-62
2020/12/28 12:39:38;;;;;;;16.07;11.73;;;;;;;6.14;70.30;97230.29;2933909;80;21084;-63
2020/12/28 12:44:19;;;;;;;27.52;20.90;;;;;;;6.09;70.26;97228.67;2879385;81;21124;-63
2020/12/28 12:48:22;;;;;;;35.38;21.70;;;;;;;6.09;70.09;97227.35;2817667;83;21602;-63
2020/12/28 12:52:25;;;;;;;33.25;20.10;;;;;;;6.10;70.09;97228.99;2822913;83;21592;-64
2020/12/28 12:57:02;;;;;;;28.32;17.32;;;;;;;6.09;70.46;97255.06;2813451;83;21147;-63
2020/12/28 13:01:05;;;;;;;50.63;29.63;;;;;;;6.07;70.87;97272.05;2824576;83;21497;-61
2020/12/28 13:05:40;;;;;;;35.05;21.82;;;;;;;6.12;70.84;97283.74;2841731;82;21284;-63
2020/12/28 13:09:43;;;;;;;24.12;18.77;;;;;;;6.17;71.00;97289.00;2856995;83;21582;-63
2020/12/28 13:14:20;;;;;;;27.87;20.12;;;;;;;6.13;70.75;97291.15;2807339;83;21148;-62
2020/12/28 13:18:23;;;;;;;31.97;19.98;;;;;;;6.08;70.56;97297.44;2807043;83;21143;-63
2020/12/28 13:22:26;;;;;;;24.27;16.50;;;;;;;6.03;70.51;97288.71;2837850;82;21559;-62
2020/12/28 13:27:07;;;;;;;26.20;18.07;;;;;;;6.04;70.46;97289.55;2857165;82;21135;-64
2020/12/28 13:31:12;;;;;;;29.05;18.75;;;;;;;6.00;70.57;97295.14;2861668;81;21129;-61
2020/12/28 13:35:18;;;;;;;22.03;16.03;;;;;;;5.97;70.76;97306.52;2813609;83;21168;-63
2020/12/28 13:39:21;;;;;;;;;;;;;;;5.94;70.75;97297.63;2827277;83;21148;-63
2020/12/28 13:43:24;;;;;;;23.15;15.25;;;;;;;5.94;70.69;97312.14;2799269;83;20202;-63
2020/12/28 13:47:33;;;;;;;22.73;16.45;;;;;;;5.92;70.37;97311.49;2814192;82;21668;-63
2020/12/28 13:51:36;;;;;;;19.05;13.13;;;;;;;5.93;70.30;97310.50;2808232;83;21126;-62
2020/12/28 13:55:41;;;;;;;27.45;16.55;;;;;;;5.95;70.04;97316.42;2792772;83;21102;-67
2020/12/28 13:59:43;;;;;;;28.30;16.80;;;;;;;5.95;69.76;97319.88;2814882;83;21185;-64
2020/12/28 14:03:49;;;;;;;30.45;19.40;;;;;;;5.96;69.93;97323.34;2818181;82;29681;-63
2020/12/28 14:07:51;;;;;;;115.08;60.73;;;;;;;5.91;69.43;97325.67;2800594;83;21177;-60
2020/12/28 14:11:54;;;;;;;23.35;15.80;;;;;;;5.92;69.61;97324.69;2797413;83;21184;-62
2020/12/28 14:15:57;;;;;;;42.88;27.52;;;;;;;5.92;69.29;97325.49;2786576;83;21141;-61
2020/12/28 14:20:01;;;;;;;26.70;14.78;;;;;;;5.94;69.40;97332.73;2803465;83;21141;-65
2020/12/28 14:24:05;;;;;;;15.40;10.90;;;;;;;5.92;69.42;97332.59;2804645;84;21667;-63
2020/12/28 14:28:07;;;;;;;27.75;17.07;;;;;;;5.92;68.85;97329.96;2821106;84;21678;-64
2020/12/28 14:32:11;;;;;;;28.70;19.60;;;;;;;5.92;68.90;97325.49;2830498;82;21123;-62
2020/12/28 14:36:17;;;;;;;33.92;23.12;;;;;;;5.88;68.99;97331.27;2810442;83;21198;-61
2020/12/28 14:40:19;;;;;;;30.48;18.32;;;;;;;5.79;69.18;97336.57;2834828;83;21148;-61
2020/12/28 14:44:22;;;;;;;34.40;23.90;;;;;;;5.73;69.36;97326.70;2858373;83;21192;-64
2020/12/28 14:48:26;;;;;;;37.93;24.52;;;;;;;5.72;69.52;97336.92;2839785;83;21188;-63
2020/12/28 14:52:31;;;;;;;40.43;27.95;;;;;;;5.72;69.72;97342.20;2842788;82;21627;-65
2020/12/28 14:56:34;;;;;;;32.45;20.35;;;;;;;5.71;69.98;97336.09;2859876;83;21154;-63
2020/12/28 15:00:38;;;;;;;111.65;70.70;;;;;;;5.68;70.06;97335.11;2861547;82;21173;-63
2020/12/28 15:04:43;;;;;;;70.75;46.13;;;;;;;5.63;70.08;97330.84;2859483;83;21611;-66
2020/12/28 15:08:46;;;;;;;44.18;30.62;;;;;;;5.60;69.67;97318.47;2827054;83;21145;-67
2020/12/28 15:12:49;;;;;;;43.50;25.25;;;;;;;5.56;69.79;97310.91;2860634;83;21131;-64
2020/12/28 15:16:52;;;;;;;39.48;22.58;;;;;;;5.52;69.85;97299.05;2863075;82;21168;-65
2020/12/28 15:20:57;;;;;;;38.88;19.30;;;;;;;5.43;70.13;97292.96;2864509;83;21184;-67
2020/12/28 15:25:02;;;;;;;35.13;24.87;;;;;;;5.35;70.93;97289.00;2842695;83;21176;-66
2020/12/28 15:29:05;;;;;;;70.22;45.50;;;;;;;5.27;71.33;97280.59;2836870;82;21184;-66
2020/12/28 15:33:08;;;;;;;51.37;32.23;;;;;;;5.33;71.32;97271.20;2835487;83;21192;-64
2020/12/28 15:37:11;;;;;;;51.42;34.27;;;;;;;5.39;71.28;97275.80;2840289;82;21140;-67
2020/12/28 15:41:14;;;;;;;48.25;36.15;;;;;;;5.39;71.46;97284.22;2841404;83;21160;-65
2020/12/28 15:45:18;;;;;;;65.30;39.08;;;;;;;5.24;72.22;97325.73;2841682;83;21192;-66
2020/12/28 15:49:25;;;;;;;47.55;27.42;;;;;;;5.07;73.00;97335.45;2826006;83;21663;-66
2020/12/28 15:53:29;;;;;;;45.30;29.72;;;;;;;4.92;74.29;97331.81;2799707;83;21173;-66
2020/12/28 15:57:32;;;;;;;35.52;23.95;;;;;;;4.77;74.99;97331.12;2792669;83;21149;-66
2020/12/28 16:01:35;;;;;;;90.00;54.33;;;;;;;4.73;75.26;97344.80;2800434;83;21201;-62
2020/12/28 16:05:41;;;;;;;98.22;58.87;;;;;;;4.64;75.28;97335.54;2789038;84;21689;-65
2020/12/28 16:09:45;;;;;;;35.58;24.27;;;;;;;4.61;75.26;97342.92;2810795;82;21133;-65
2020/12/28 16:13:48;;;;;;;39.08;23.92;;;;;;;4.66;75.18;97340.66;2812007;84;21591;-64
2020/12/28 16:17:52;;;;;;;39.08;24.15;;;;;;;4.64;75.07;97333.41;2799044;83;21201;-63
2020/12/28 16:21:55;;;;;;;32.42;20.57;;;;;;;4.56;75.18;97330.27;2785766;83;21173;-65
2020/12/28 16:25:59;;;;;;;26.95;20.17;;;;;;;4.56;74.88;97343.42;2802488;83;21479;-64
2020/12/28 16:30:04;;;;;;;33.20;24.05;;;;;;;4.63;74.85;97339.16;2819134;83;21149;-64
2020/12/28 16:34:07;;;;;;;44.67;25.88;;;;;;;4.73;74.45;97329.00;2792101;83;21163;-63
2020/12/28 16:38:10;;;;;;;33.50;22.90;;;;;;;4.78;74.01;97337.23;2791105;82;21172;-63
2020/12/28 16:42:13;;;;;;;40.50;23.35;;;;;;;4.78;73.63;97330.64;2818586;82;21192;-64
2020/12/28 16:46:18;;;;;;;54.67;27.35;;;;;;;4.77;73.31;97322.41;2787438;82;22030;-67
2020/12/28 16:50:22;;;;;;;38.25;22.87;;;;;;;4.76;73.13;97316.81;2787612;83;21561;-65
2020/12/28 16:54:29;;;;;;;103.17;49.65;;;;;;;4.73;72.98;97301.34;2813120;82;21177;-65
2020/12/28 16:58:31;;;;;;;72.47;39.03;;;;;;;4.68;72.81;97294.73;2805811;83;21650;-65
2020/12/28 17:02:36;;;;;;;71.90;38.45;;;;;;;4.64;72.82;97292.61;2819017;82;21660;-66
2020/12/28 17:06:40;;;;;;;96.97;57.80;;;;;;;4.60;72.89;97297.36;2819298;82;21137;-63
2020/12/28 17:10:44;;;;;;;490.38;277.40;;;;;;;4.53;72.96;97298.49;2795890;83;21173;-66
2020/12/28 17:14:48;;;;;;;153.80;73.78;;;;;;;4.52;73.26;97292.05;2803565;83;21193;-63
2020/12/28 17:18:51;;;;;;;36.17;21.40;;;;;;;4.59;73.08;97289.13;2802522;83;21173;-66
2020/12/28 17:22:54;;;;;;;88.22;48.10;;;;;;;4.62;72.74;97285.33;2790479;83;21552;-67
2020/12/28 17:26:59;;;;;;;438.33;258.63;;;;;;;4.62;72.57;97282.22;2800158;83;21205;-66
2020/12/28 17:31:03;;;;;;;124.43;77.17;;;;;;;4.65;72.68;97294.25;2800347;83;21177;-66
2020/12/28 17:35:06;;;;;;;186.77;113.97;;;;;;;4.68;72.82;97271.54;2788077;83;21509;-65
2020/12/28 17:39:10;;;;;;;97.67;58.78;;;;;;;4.73;72.95;97271.06;2797815;83;22097;-62
2020/12/28 17:43:15;;;;;;;117.15;80.97;;;;;;;4.73;73.32;97271.06;2795755;84;21181;-65
2020/12/28 17:47:18;;;;;;;175.27;106.97;;;;;;;4.74;73.57;97256.40;2803372;84;21125;-64
2020/12/28 17:51:23;;;;;;;91.90;56.13;;;;;;;4.80;73.79;97262.83;2800072;83;21615;-65
2020/12/28 17:55:26;;;;;;;31.87;17.27;;;;;;;4.85;73.91;97259.20;2798173;83;22049;-66
2020/12/28 17:59:29;;;;;;;16.27;14.35;;;;;;;4.89;74.33;97264.47;2794190;84;21588;-65
2020/12/28 18:03:33;;;;;;;23.20;14.80;;;;;;;5.02;74.37;97262.69;2795402;83;21182;-67
2020/12/28 18:07:36;;;;;;;29.57;15.58;;;;;;;5.16;73.92;97258.55;2788117;83;21209;-66
2020/12/28 18:11:39;;;;;;;105.78;57.10;;;;;;;5.24;73.83;97252.45;2790621;83;21121;-65
2020/12/28 18:15:43;;;;;;;42.88;23.38;;;;;;;5.32;73.60;97240.58;2789820;83;21169;-65
2020/12/28 18:19:46;;;;;;;83.87;44.83;;;;;;;5.39;73.30;97230.19;2819034;84;21173;-64
2020/12/28 18:23:49;;;;;;;115.15;57.13;;;;;;;5.39;73.13;97226.23;2808605;83;21161;-65
2020/12/28 18:27:52;;;;;;;68.60;38.38;;;;;;;5.41;73.33;97216.34;2791493;83;21667;-65
2020/12/28 18:31:58;;;;;;;34.98;23.00;;;;;;;5.51;73.54;97206.92;2793122;83;21475;-66
2020/12/28 18:36:02;;;;;;;39.20;24.72;;;;;;;5.63;73.44;97194.19;2794226;83;21157;-66
2020/12/28 18:40:05;;;;;;;24.00;15.18;;;;;;;5.76;72.69;97189.69;2796395;82;21173;-66
2020/12/28 18:44:08;;;;;;;65.20;41.10;;;;;;;5.85;72.43;97181.56;2801803;83;21149;-65
2020/12/28 18:48:13;;;;;;;40.12;28.05;;;;;;;5.89;72.44;97158.79;2813910;83;21623;-62
2020/12/28 18:52:19;;;;;;;64.82;39.90;;;;;;;5.94;72.47;97173.11;2793691;83;21196;-65
2020/12/28 18:56:23;;;;;;;21.60;15.57;;;;;;;6.04;72.32;97168.97;2807254;83;21196;-63
2020/12/28 19:00:27;;;;;;;29.42;21.82;;;;;;;6.16;71.95;97173.86;2793744;83;21208;-63
2020/12/28 19:04:32;;;;;;;28.95;17.15;;;;;;;6.34;71.42;97171.77;2801474;83;21153;-64
2020/12/28 19:08:35;;;;;;;31.35;19.05;;;;;;;6.40;70.84;97177.66;2797315;83;21157;-64
2020/12/28 19:12:38;;;;;;;40.50;24.55;;;;;;;6.37;70.80;97185.94;2797682;84;21106;-63